Station: Ayr  

  Atmospheric Gas Attenuation - ITU Rec 676-11   ----------------- dB/100km -----------------
Date Time Temp RH % AH g/m3 Dew Point Wind Direction Speed kph Gust kph Barometer mB Rainfall Since 9am 24GHz 47GHz 76GHz 122GHz 134GHz 241GHz
08/05 12:30 27.8 51 13.72 17 17 28 1013.1 0 29.6 29.7 52.0 137.3 143.4 497.6
08/05 12:20 27.9 52 14.06 17.4 19 24 1013.1 0 30.3 30.2 53.3 140.7 147.6 512.3
08/05 12:10 27.8 54 14.53 17.9 13 15 1013.1 0 31.3 31.0 55.2 145.9 153.9 534.4
08/05 12:00 28.1 50 13.67 16.7 13 20 1013.1 0 29.5 29.5 51.6 136.3 142.2 493.5
08/05 11:50 27.4 50 13.16 16.1 17 20 1013.1 0 28.4 29.0 50.1 132.1 137.0 475.1
08/05 11:40 27.1 51 13.2 16.1 19 24 1013.1 0 28.5 29.1 50.5 133.1 138.0 478.6
08/05 11:30 27 52 13.38 16.3 17 28 1013.1 0 28.9 29.4 51.2 135.1 140.5 487.3
08/05 11:20 27 51 13.13 16 19 24 1013.1 0 28.4 29.0 50.2 132.5 137.3 476.1
08/05 11:10 26.7 51 12.91 15.7 15 19 1013.1 0 28.0 28.8 49.6 130.7 135.0 468.1
08/05 11:00 26.6 51 12.84 15.9 13 20 1013.1 0 27.8 28.7 49.4 130.2 134.3 465.6
08/05 10:50 26.6 50 12.59 15.6 13 15 1013.1 0 27.3 28.3 48.4 127.6 131.1 454.5
08/05 10:40 25.9 53 12.83 15.6 15 20 1013.1 0 27.9 28.9 49.8 131.2 135.4 469.3
08/05 10:30 25.8 51 12.28 14.9 19 24 1013.1 0 26.7 28.1 47.7 125.7 128.5 445.3
08/05 10:20 26.1 53 12.98 15.8 17 22 1013.1 0 28.2 29.1 50.2 132.4 136.9 474.8
08/05 10:10 25.4 54 12.71 15.4 20 26 1013.1 0 27.6 28.9 49.6 130.8 134.7 466.8
08/05 10:00 25.7 54 12.93 15.7 13 20 1013.1 0 28.1 29.2 50.3 132.6 137.0 475.0
08/05 09:50 24.9 54 12.36 15.2 13 17 1013.1 0 26.9 28.5 48.5 127.9 131.0 454.0
08/05 09:40 24.5 55 12.31 14.9 20 26 1013.1 0 26.9 28.6 48.6 128.0 131.1 454.1
08/05 09:30 24.7 56 12.67 15.3 15 24 1013.1 0 27.6 29.1 49.9 131.5 135.4 469.2
08/05 09:20 24 56 12.18 14.7 20 24 1013.1 0 26.6 28.5 48.4 127.5 130.2 451.1
08/05 09:10 23.9 57 12.33 14.9 17 20 1013.1 0 26.9 28.8 49.0 129.2 132.3 458.4
08/05 09:00 23.7 57 12.19 14.9 17 24 1013.1 0 26.7 28.6 48.6 128.1 130.8 453.2
08/05 08:50 23.6 59 12.55 15.1 13 17 1013.1 0 27.4 29.2 50.1 132.1 135.7 470.3
08/05 08:40 23.1 61 12.61 15.2 17 20 1013.1 0 27.6 29.5 50.7 133.6 137.4 476.0
08/05 08:30 23 63 12.95 15.6 13 19 1013.1 0 28.3 30.1 52.1 137.4 142.1 492.5
08/05 08:20 22.1 63 12.3 14.7 15 19 1013.1 0 27.0 29.3 50.0 131.9 135.0 467.7
08/05 08:10 21.8 67 12.85 15.4 11 13 1013.1 0 28.2 30.3 52.5 138.4 143.0 495.4
08/05 08:00 21.2 67 12.42 14.8 13 19 1013.1 0 27.3 29.8 51.1 134.7 138.2 478.7
08/05 07:50 20.7 69 12.42 14.8 15 19 1013.1 0 27.3 30.0 51.4 135.6 139.1 481.8
08/05 07:40 20.4 74 13.09 15.6 13 17 1013.1 0 28.8 31.2 54.5 143.7 149.0 516.1
08/05 07:30 20.1 76 13.21 15.7 11 15 1013.1 0 29.1 31.6 55.2 145.6 151.2 524.0
08/05 07:20 19.8 76 12.98 15.4 11 13 1013.1 0 28.6 31.3 54.4 143.5 148.6 514.7
08/05 07:10 19.4 79 13.18 15.7 9 11 1013.1 0 29.0 31.8 55.6 146.6 152.2 527.3
08/05 07:00 19.2 79 13.03 15.5 11 15 1013.1 0 28.7 31.6 55.1 145.2 150.5 521.2
08/05 06:50 19.1 81 13.28 15.8 9 11 1013.1 0 29.3 32.1 56.2 148.3 154.3 534.3
08/05 06:40 19.1 84 13.77 16.3 9 11 1013.1 0 30.3 32.9 58.4 154.1 161.3 559.0
08/05 06:30 19.2 85 14.01 16.6 9 15 1013.1 0 30.8 33.3 59.4 156.7 164.6 570.5
08/05 06:20 19.2 85 14.01 16.6 11 15 1013.1 0 30.8 33.3 59.4 156.7 164.6 570.5
08/05 06:10 19.2 87 14.34 17 9 9 1013.1 0 31.5 33.9 60.9 160.7 169.5 587.4
08/05 06:00 19.3 88 14.59 17.3 7 11 1013.1 0 32.1 34.3 61.9 163.5 173.0 599.5
08/05 05:50 19.4 89 14.85 17.5 9 11 1013.1 0 32.6 34.8 63.0 166.4 176.6 612.3
08/05 05:40 19.3 90 14.93 17.6 9 9 1013.1 0 32.8 35.0 63.5 167.6 178.0 617.3
08/05 05:30 19.4 91 15.18 17.9 9 11 1013.1 0 33.3 35.4 64.5 170.4 181.6 629.6
08/05 05:20 19.2 92 15.17 17.9 9 11 1013.1 0 33.3 35.4 64.7 170.8 181.9 630.7
08/05 05:10 19.1 92 15.08 17.8 7 7 1013.1 0 33.1 35.3 64.3 169.9 180.8 626.8
08/05 05:00 19.3 92 15.26 18 6 7 1013.1 0 33.5 35.6 65.0 171.7 183.0 634.6
08/05 04:50 19.4 92 15.35 18.1 6 6 1013.1 0 33.7 35.7 65.3 172.5 184.1 638.5
08/05 04:40 19.4 92 15.35 18.1 6 7 1013.1 0 33.7 35.7 65.3 172.5 184.1 638.5
08/05 04:30 19.7 91 15.45 18.2 0 0 1013.1 0 33.9 35.7 65.5 173.1 184.9 641.3
08/05 04:20 19.8 91 15.54 18.3 0 0 1013.1 0 34.1 35.9 65.9 174.0 186.0 645.2
08/05 04:10 19.9 90 15.46 18.2 7 9 1013.1 0 33.9 35.7 65.4 172.8 184.6 640.1
08/05 04:00 20.3 90 15.83 18.6 7 11 1013.1 0 34.6 36.2 66.8 176.4 189.2 656.2
08/05 03:50 20 91 15.73 18.5 7 9 1013.1 0 34.5 36.1 66.6 175.9 188.4 653.5
08/05 03:40 20 91 15.73 18.5 2 6 1013.1 0 34.5 36.1 66.6 175.9 188.4 653.5
08/05 03:30 19.8 92 15.71 18.5 6 7 1013.1 0 34.4 36.2 66.6 176.1 188.6 654.2
08/05 03:20 19.7 92 15.62 18.4 0 0 1013.1 0 34.2 36.1 66.3 175.2 187.5 650.3
08/05 03:10 19.4 91 15.18 17.9 6 7 1013.1 0 33.3 35.4 64.5 170.4 181.6 629.6
08/05 03:00 19.5 91 15.27 18 4 6 1013.1 0 33.5 35.5 64.9 171.3 182.7 633.5
08/05 02:50 19.3 90 14.93 17.6 4 6 1013.1 0 32.8 35.0 63.5 167.6 178.0 617.3
08/05 02:40 19.6 91 15.36 18.1 0 0 1013.1 0 33.7 35.6 65.2 172.2 183.8 637.4
08/05 02:30 19.6 91 15.36 18.1 2 6 1013.1 0 33.7 35.6 65.2 172.2 183.8 637.4
08/05 02:20 19.7 90 15.28 18 4 6 1013.1 0 33.5 35.4 64.7 171.0 182.3 632.3
08/05 02:10 19.8 90 15.37 18.1 4 6 1013.1 0 33.7 35.6 65.1 171.9 183.5 636.2
08/05 02:00 19.9 91 15.63 18.4 7 9 1013.1 0 34.2 36.0 66.2 174.9 187.2 649.1
08/05 01:50 19.8 90 15.37 18.1 7 9 1013.1 0 33.7 35.6 65.1 171.9 183.5 636.2
08/05 01:40 20 91 15.73 18.5 7 9 1013.1 0 34.5 36.1 66.6 175.9 188.4 653.5
08/05 01:30 20 90 15.55 18.3 2 7 1013.1 0 34.1 35.8 65.7 173.6 185.7 644.0
08/05 01:20 20.1 89 15.47 18.2 6 7 1013.1 0 33.9 35.6 65.3 172.4 184.2 638.9
08/05 01:10 20.2 89 15.56 18.3 6 7 1013.1 0 34.1 35.7 65.6 173.3 185.3 642.8
08/05 01:00 20.1 90 15.64 18.4 7 11 1013.1 0 34.3 35.9 66.1 174.5 186.8 647.9
08/05 00:50 20.2 91 15.91 18.7 2 6 1013.1 0 34.8 36.4 67.2 177.6 190.7 661.3
08/05 00:40 20.3 91 16 18.8 7 7 1013.1 0 35.0 36.5 67.6 178.5 191.8 665.2
08/05 00:30 20.2 91 15.91 18.7 6 9 1013.1 0 34.8 36.4 67.2 177.6 190.7 661.3
08/05 00:20 20.4 91 16.1 18.9 6 7 1013.1 0 35.2 36.7 67.9 179.5 193.0 669.7
08/05 00:10 20.5 91 16.19 19 6 6 1013.1 0 35.4 36.8 68.3 180.4 194.2 673.6
08/05 00:00 20.8 92 16.66 19.5 0 4 1013.1 0 36.4 37.5 70.2 185.6 200.6 696.0
07/05 23:50 20.6 92 16.46 19.3 4 6 1013.1 0 36.0 37.3 69.4 183.5 198.0 687.1
07/05 23:40 20.6 92 16.46 19.3 0 0 1013.1 0 36.0 37.3 69.4 183.5 198.0 687.1
07/05 23:30 20.6 92 16.46 19.3 6 9 1013.1 0 36.0 37.3 69.4 183.5 198.0 687.1
07/05 23:20 20.7 92 16.56 19.4 7 7 1013.1 0 36.2 37.4 69.8 184.5 199.3 691.5
07/05 23:10 20.6 91 16.29 19.1 2 6 1013.1 0 35.6 36.9 68.6 181.4 195.4 678.0
07/05 23:00 20.7 91 16.38 19.2 0 0 1013.1 0 35.8 37.1 69.0 182.3 196.5 681.9
07/05 22:50 21 91 16.67 19.5 0 0 1013.1 0 36.4 37.5 70.1 185.2 200.2 694.7
07/05 22:40 21 90 16.49 19.3 0 0 1013.1 0 36.0 37.1 69.2 182.9 197.4 685.1
07/05 22:30 21.1 90 16.58 19.4 2 7 1013.1 0 36.2 37.3 69.6 183.8 198.6 689.0
07/05 22:20 21.2 90 16.68 19.5 0 0 1013.1 0 36.4 37.4 69.9 184.8 199.8 693.4
07/05 22:10 21.3 90 16.77 19.6 0 0 1013.1 0 36.6 37.5 70.3 185.7 200.9 697.3
07/05 22:00 21.5 90 16.97 19.8 2 6 1013.1 0 37.0 37.8 71.0 187.7 203.5 706.1
07/05 21:50 21.7 90 17.17 20 0 0 1013.1 0 37.4 38.1 71.8 189.7 206.0 715.0
07/05 21:40 21.8 90 17.27 20.1 0 0 1013.1 0 37.6 38.2 72.2 190.7 207.3 719.4
07/05 21:30 22.1 89 17.37 20.2 6 9 1013.1 0 37.8 38.3 72.3 191.2 208.0 721.9
07/05 21:20 22 89 17.27 20.1 6 6 1013.1 0 37.6 38.2 72.0 190.2 206.7 717.5
07/05 21:10 21.9 91 17.56 20.4 7 9 1013.1 0 38.2 38.8 73.4 194.2 211.5 734.1
07/05 21:00 21.6 91 17.26 20.1 2 7 1013.1 0 37.6 38.3 72.3 191.1 207.7 720.8
07/05 20:50 21.5 89 16.78 19.6 0 0 1013.1 0 36.6 37.5 70.1 185.3 200.6 696.0
07/05 20:40 21.7 89 16.98 19.8 0 0 1013.1 0 37.0 37.7 70.9 187.4 203.1 704.8
07/05 20:30 21.9 88 16.98 19.8 2 6 1013.1 0 37.0 37.7 70.7 186.9 202.5 702.9
07/05 20:20 22.1 88 17.18 20 4 6 1013.1 0 37.4 37.9 71.4 188.9 205.1 711.7
07/05 20:10 22.1 87 16.98 19.8 4 6 1013.1 0 36.9 37.6 70.5 186.4 202.0 701.1
07/05 20:00 22.2 87 17.08 19.9 6 7 1013.1 0 37.1 37.7 70.9 187.4 203.3 705.5

Last Refresh: 08-May-2026 12:07:18

Bureau of Meteorology